Pouch Cove, Canada
Current Conditions -  °F | °C
As of 6:00 AM on Friday 31 Oct 2014 (Local Time) from CYYT Reporting Station
Overcast Overcast  
Wind Chill: 41°   Ceiling: 1700
Heat Index: 45°   Visibility: 15mi
Dew Point: 41°   Wind: 7mph
Humidity: 87%   Direction: 320°NW
Pressure: 29.76"   Gusts: NA
Location:  47.76°N, 52.76°W
Report Text: CYYT 310800Z 32006KT 15SM BKN017 OVC140 07/05 A2976 RMK SC6AC2 SLP081
Loading
Personal Weather Stations






























Interactive Weather Map
Tropical Storm Tracking
New forecast layout! Learn more

10-Day Weather Forecast

Advertisements
Track Severe Weather on mobile